This is the latest recevied weather packets stored in our database for station/object OK1FET-16. If no packets are shown the sender has not sent any weather packets the latest 1 day(s).
| Time | Temp. | Humidity | Pressure | Rain* | Wind** | Luminosity | Snow |
|---|---|---|---|---|---|---|---|
| 1777974051 | 20° C | 50% | 1006.9 hPa | - | 0.89 m/s, 279° | - | - |
| 1777974050 | 20° C | 50% | 1006.9 hPa | - | 0.89 m/s, 279° | - | - |
| 1777973780 | 20° C | 51% | 1006.9 hPa | - | 1.34 m/s, 299° | - | - |
| 1777973780 | 20° C | 51% | 1006.9 hPa | - | 1.34 m/s, 299° | - | - |
| 1777973780 | 20° C | 51% | 1006.9 hPa | - | 1.34 m/s, 299° | - | - |
| 1777973509 | 20° C | 48% | 1007 hPa | - | 0.89 m/s, 283° | - | - |
| 1777973509 | 20° C | 48% | 1007 hPa | - | 0.89 m/s, 283° | - | - |
| 1777973509 | 20° C | 48% | 1007 hPa | - | 0.89 m/s, 283° | - | - |
| 1777973239 | 20° C | 50% | 1007 hPa | - | 0.89 m/s, 240° | - | - |
| 1777973238 | 20° C | 50% | 1007 hPa | - | 0.89 m/s, 240° | - | - |
| 1777973238 | 20° C | 50% | 1007 hPa | - | 0.89 m/s, 240° | - | - |
| 1777972697 | 18.33° C | 54% | 1007 hPa | - | 1.79 m/s, 266° | - | - |
| 1777972697 | 18.33° C | 54% | 1007 hPa | - | 1.79 m/s, 266° | - | - |
| 1777972697 | 18.33° C | 54% | 1007 hPa | - | 1.79 m/s, 266° | - | - |
| 1777971615 | 18.89° C | 53% | 1007.2 hPa | - | 0.89 m/s, 209° | - | - |
| 1777971614 | 18.89° C | 53% | 1007.2 hPa | - | 0.89 m/s, 209° | - | - |
| 1777971614 | 18.89° C | 53% | 1007.2 hPa | - | 0.89 m/s, 209° | - | - |
| 1777971344 | 19.44° C | 51% | 1007.2 hPa | - | 0.89 m/s, 278° | - | - |
| 1777971344 | 19.44° C | 51% | 1007.2 hPa | - | 0.89 m/s, 278° | - | - |
| 1777971344 | 19.44° C | 51% | 1007.2 hPa | - | 0.89 m/s, 278° | - | - |
| 1777971073 | 19.44° C | 54% | - | - | 0.45 m/s, 260° | - | - |
| 1777971073 | 19.44° C | 54% | 1007.3 hPa | - | 0.45 m/s, 260° | - | - |
| 1777971073 | 19.44° C | 54% | 1007.3 hPa | - | 0.45 m/s, 260° | - | - |
| 1777971073 | 19.44° C | 54% | 1007.3 hPa | - | 0.45 m/s, 260° | - | - |
| 1777970803 | 18.89° C | 56% | 1007.3 hPa | - | 0.89 m/s, 167° | - | - |
* Rain since midnight (hover to see other rain measurements)
** Current wind speed in m/s (hover to see current wind gust speed)